createdAt,value
2023-04-09T00:03:02.371Z,11.20
2023-04-09T00:08:04.025Z,12.40
2023-04-09T00:13:06.250Z,10.90
2023-04-09T00:18:07.799Z,9.60
2023-04-09T00:23:10.669Z,9.00
2023-04-09T00:28:13.257Z,7.90
2023-04-09T00:33:15.290Z,9.10
2023-04-09T00:38:17.113Z,10.00
2023-04-09T00:43:18.778Z,9.90
2023-04-09T00:48:20.833Z,11.30
2023-04-09T00:53:22.474Z,10.90
2023-04-09T00:58:24.055Z,12.50
2023-04-09T01:03:25.897Z,10.10
2023-04-09T01:08:39.093Z,10.00
2023-04-09T01:13:53.395Z,11.70
2023-04-09T01:19:03.906Z,9.70
2023-04-09T01:24:27.140Z,10.20
2023-04-09T01:29:33.758Z,10.60
2023-04-09T01:34:36.509Z,9.10
2023-04-09T01:39:39.116Z,9.50
2023-04-09T01:44:41.674Z,10.50
2023-04-09T01:49:44.751Z,9.80
2023-04-09T01:54:46.388Z,10.10
2023-04-09T01:59:47.902Z,10.40
2023-04-09T02:04:53.089Z,10.00
2023-04-09T02:09:54.904Z,9.90
2023-04-09T02:14:57.921Z,9.50
2023-04-09T02:19:59.420Z,9.90
2023-04-09T02:25:01.444Z,9.50
2023-04-09T02:30:04.548Z,10.20
2023-04-09T02:35:06.664Z,11.50
2023-04-09T02:40:09.324Z,10.10
2023-04-09T02:45:11.713Z,10.80
2023-04-09T02:50:13.199Z,10.80
2023-04-09T02:55:15.431Z,10.90
2023-04-09T03:00:17.378Z,11.10
2023-04-09T03:05:18.892Z,11.00
2023-04-09T03:10:20.545Z,12.20
2023-04-09T03:15:22.052Z,13.10
2023-04-09T03:20:23.723Z,11.50
2023-04-09T03:25:25.221Z,10.60
2023-04-09T03:30:26.851Z,12.90
2023-04-09T03:35:28.426Z,11.40
2023-04-09T03:40:30.005Z,11.90
2023-04-09T03:45:31.604Z,10.20
2023-04-09T03:50:39.635Z,10.30
2023-04-09T03:55:41.150Z,12.90
2023-04-09T04:00:43.534Z,12.00
2023-04-09T04:05:45.269Z,9.80
2023-04-09T04:10:47.114Z,9.70
2023-04-09T04:15:48.618Z,10.20
2023-04-09T04:20:50.594Z,10.00
2023-04-09T04:25:53.267Z,11.30
2023-04-09T04:30:54.965Z,12.20
2023-04-09T04:36:08.838Z,11.20
2023-04-09T04:41:11.980Z,11.00
2023-04-09T04:46:13.529Z,10.80
2023-04-09T04:51:15.399Z,10.50
2023-04-09T04:56:16.961Z,9.70
2023-04-09T05:01:19.132Z,10.20
2023-04-09T05:06:20.851Z,9.60
2023-04-09T05:11:22.389Z,8.80
2023-04-09T05:16:24.146Z,8.60
2023-04-09T05:21:26.272Z,9.50
2023-04-09T05:26:27.772Z,8.60
2023-04-09T05:31:29.504Z,8.90
2023-04-09T05:36:32.240Z,9.10
2023-04-09T05:41:34.486Z,9.90
2023-04-09T05:46:35.980Z,9.60
2023-04-09T05:51:37.466Z,9.50
2023-04-09T05:56:39.195Z,11.30
2023-04-09T06:01:40.953Z,10.60
2023-04-09T06:06:42.444Z,9.40
2023-04-09T06:11:43.926Z,9.00
2023-04-09T06:16:45.427Z,10.30
2023-04-09T06:21:46.925Z,24.10
2023-04-09T06:26:49.075Z,14.40
2023-04-09T06:31:50.572Z,9.80
2023-04-09T06:36:52.065Z,9.00
2023-04-09T06:41:53.569Z,10.10
2023-04-09T06:46:55.386Z,7.40
2023-04-09T06:51:57.157Z,7.10
2023-04-09T06:56:58.690Z,8.90
2023-04-09T07:02:01.637Z,8.40
2023-04-09T07:07:03.184Z,8.70
2023-04-09T07:12:04.711Z,8.90
2023-04-09T07:17:06.376Z,10.70
2023-04-09T07:22:08.185Z,9.50
2023-04-09T07:27:10.547Z,9.80
2023-04-09T07:32:12.492Z,9.90
2023-04-09T07:37:14.011Z,10.30
2023-04-09T07:42:15.884Z,10.50
2023-04-09T07:47:17.667Z,9.80
2023-04-09T07:52:20.191Z,9.40
2023-04-09T07:57:22.181Z,7.10
2023-04-09T08:02:24.638Z,8.40
2023-04-09T08:07:26.346Z,7.30
2023-04-09T08:12:27.881Z,7.50
2023-04-09T08:17:29.824Z,8.40
2023-04-09T08:22:31.626Z,7.90
2023-04-09T08:27:34.056Z,7.20
2023-04-09T08:32:36.444Z,7.00
2023-04-09T08:37:38.472Z,6.80
2023-04-09T08:42:56.278Z,7.90
2023-04-09T08:48:03.420Z,6.30
2023-04-09T08:53:07.369Z,7.20
2023-04-09T08:58:10.529Z,6.60
2023-04-09T09:03:13.640Z,6.20
2023-04-09T09:08:25.340Z,5.10
2023-04-09T09:13:28.133Z,6.30
2023-04-09T09:18:39.213Z,5.60
2023-04-09T09:23:42.604Z,5.00
2023-04-09T09:28:48.522Z,5.00
2023-04-09T09:33:51.240Z,4.50
2023-04-09T09:38:57.308Z,5.70
2023-04-09T09:43:59.452Z,6.00
2023-04-09T09:49:01.575Z,5.70
2023-04-09T09:54:03.758Z,5.60
2023-04-09T09:59:17.412Z,5.30
2023-04-09T10:04:21.404Z,6.40
2023-04-09T10:09:24.097Z,5.40
2023-04-09T10:14:28.928Z,5.50
2023-04-09T10:19:34.939Z,4.90
2023-04-09T10:24:36.731Z,4.70
2023-04-09T10:29:48.719Z,4.80
2023-04-09T10:34:51.077Z,4.80
2023-04-09T10:39:53.591Z,5.10
2023-04-09T10:45:12.585Z,5.00
2023-04-09T10:50:17.249Z,4.80
2023-04-09T10:55:41.876Z,4.80
2023-04-09T11:00:45.605Z,4.50
2023-04-09T11:06:11.634Z,5.40
2023-04-09T11:11:13.787Z,4.90
2023-04-09T11:16:24.284Z,5.00
2023-04-09T11:21:31.599Z,4.90
2023-04-09T11:26:36.978Z,5.10
2023-04-09T11:31:38.533Z,4.90
2023-04-09T11:36:40.992Z,4.20
2023-04-09T11:41:43.724Z,4.40
2023-04-09T11:46:45.698Z,7.80
2023-04-09T11:51:47.464Z,4.70
2023-04-09T11:56:55.838Z,4.00
2023-04-09T12:01:58.412Z,4.30
2023-04-09T12:07:00.614Z,4.60
2023-04-09T12:12:03.020Z,6.80
2023-04-09T12:17:04.509Z,5.70
2023-04-09T12:22:06.601Z,5.30
2023-04-09T12:27:08.275Z,3.90
2023-04-09T12:32:10.066Z,3.20
2023-04-09T12:37:11.933Z,3.60
2023-04-09T12:42:13.728Z,3.80
2023-04-09T12:47:15.430Z,3.90
2023-04-09T12:52:18.546Z,3.50
2023-04-09T12:57:20.054Z,3.40
2023-04-09T13:02:22.109Z,3.80
2023-04-09T13:07:24.385Z,3.70
2023-04-09T13:12:26.027Z,3.50
2023-04-09T13:17:28.018Z,4.30
2023-04-09T13:22:29.684Z,3.50
2023-04-09T13:27:31.493Z,3.40
2023-04-09T13:32:33.194Z,3.90
2023-04-09T13:37:34.996Z,3.40
2023-04-09T13:42:37.658Z,3.10
2023-04-09T13:47:39.225Z,3.40
2023-04-09T13:52:40.785Z,3.30
2023-04-09T13:57:42.293Z,2.90
2023-04-09T14:02:43.875Z,3.30
2023-04-09T14:07:45.907Z,3.50
2023-04-09T14:12:47.627Z,3.50
2023-04-09T14:17:49.203Z,3.20
2023-04-09T14:22:51.761Z,3.30
2023-04-09T14:27:53.275Z,3.40
2023-04-09T14:32:54.796Z,3.10
2023-04-09T14:37:56.342Z,3.20
2023-04-09T14:43:01.162Z,3.00
2023-04-09T14:48:03.438Z,3.80
2023-04-09T14:53:05.675Z,3.50
2023-04-09T14:58:08.668Z,3.20
2023-04-09T15:03:10.503Z,2.40
2023-04-09T15:08:13.324Z,3.70
2023-04-09T15:13:15.682Z,3.40
2023-04-09T15:18:17.169Z,3.30
2023-04-09T15:23:18.676Z,3.30
2023-04-09T15:28:20.461Z,3.50
2023-04-09T15:33:22.098Z,2.90
2023-04-09T15:38:25.726Z,3.60
2023-04-09T15:43:28.006Z,3.30
2023-04-09T15:48:32.824Z,3.30
2023-04-09T15:53:34.632Z,3.00
2023-04-09T15:58:36.595Z,2.70
2023-04-09T16:03:41.947Z,2.80
2023-04-09T16:08:44.356Z,3.00
2023-04-09T16:13:46.560Z,3.30
2023-04-09T16:18:48.143Z,3.10
2023-04-09T16:23:49.721Z,3.90
2023-04-09T16:28:51.728Z,4.20
2023-04-09T16:33:53.812Z,3.70
2023-04-09T16:38:55.627Z,3.80
2023-04-09T16:43:57.139Z,3.90
2023-04-09T16:48:58.673Z,4.80
2023-04-09T16:54:00.386Z,5.60
2023-04-09T16:59:02.393Z,7.60
2023-04-09T17:04:04.193Z,10.30
2023-04-09T17:09:06.612Z,8.70
2023-04-09T17:14:08.274Z,8.10
2023-04-09T17:19:10.395Z,6.40
2023-04-09T17:24:12.105Z,6.30
2023-04-09T17:29:13.845Z,5.60
2023-04-09T17:34:16.457Z,5.90
2023-04-09T17:39:18.030Z,6.40
2023-04-09T17:44:19.556Z,6.60
2023-04-09T17:49:22.427Z,6.40
2023-04-09T17:54:24.853Z,6.50
2023-04-09T17:59:27.281Z,6.80
2023-04-09T18:04:29.045Z,7.80
2023-04-09T18:09:32.200Z,8.60
2023-04-09T18:14:33.964Z,7.60
2023-04-09T18:19:36.068Z,7.10
2023-04-09T18:24:37.595Z,8.20
2023-04-09T18:29:39.420Z,8.50
2023-04-09T18:34:41.131Z,8.30
2023-04-09T18:39:43.169Z,8.00
2023-04-09T18:44:45.731Z,6.40
2023-04-09T18:49:47.498Z,5.50
2023-04-09T18:54:49.534Z,5.50
2023-04-09T18:59:51.656Z,5.20
2023-04-09T19:04:53.665Z,6.30
2023-04-09T19:09:55.313Z,6.10
2023-04-09T19:14:56.842Z,7.60
2023-04-09T19:19:58.401Z,7.30
2023-04-09T19:25:00.227Z,6.40
2023-04-09T19:30:01.779Z,6.50
2023-04-09T19:35:04.000Z,6.70
2023-04-09T19:40:06.526Z,5.90
2023-04-09T19:45:08.968Z,5.90
2023-04-09T19:50:11.498Z,5.80
2023-04-09T19:55:13.100Z,6.60
2023-04-09T20:00:14.797Z,7.40
2023-04-09T20:05:20.982Z,6.80
2023-04-09T20:10:22.571Z,7.40
2023-04-09T20:15:24.148Z,8.40
2023-04-09T20:20:26.220Z,9.50
2023-04-09T20:25:34.367Z,9.30
2023-04-09T20:30:36.326Z,8.00
2023-04-09T20:35:38.016Z,7.60
2023-04-09T20:40:39.704Z,7.40
2023-04-09T20:45:41.260Z,7.70
2023-04-09T20:50:43.476Z,7.70
2023-04-09T20:55:46.048Z,8.20
2023-04-09T21:00:47.834Z,8.20
2023-04-09T21:05:49.340Z,8.20
2023-04-09T21:10:51.314Z,8.40
2023-04-09T21:15:53.569Z,9.00
2023-04-09T21:20:55.537Z,8.00
2023-04-09T21:25:57.476Z,7.60
2023-04-09T21:30:59.816Z,8.20
2023-04-09T21:36:03.513Z,7.80
2023-04-09T21:41:05.359Z,7.60
2023-04-09T21:46:07.576Z,8.60
2023-04-09T21:51:10.793Z,9.50
2023-04-09T21:56:12.272Z,8.20
2023-04-09T22:01:26.247Z,7.90
2023-04-09T22:06:31.100Z,8.30
2023-04-09T22:11:34.466Z,9.70
2023-04-09T22:16:36.273Z,9.70
2023-04-09T22:21:37.840Z,8.50
2023-04-09T22:26:40.967Z,8.90
2023-04-09T22:31:42.490Z,9.20
2023-04-09T22:36:44.143Z,8.90
2023-04-09T22:41:45.859Z,8.40
2023-04-09T22:46:47.475Z,7.50
2023-04-09T22:51:49.183Z,7.40
2023-04-09T22:56:50.857Z,7.90
2023-04-09T23:01:52.540Z,8.00
2023-04-09T23:06:54.668Z,7.60
2023-04-09T23:11:57.152Z,7.50
2023-04-09T23:16:58.952Z,8.00
2023-04-09T23:22:01.356Z,8.30
2023-04-09T23:27:02.950Z,8.40
2023-04-09T23:32:05.038Z,7.40
2023-04-09T23:37:06.568Z,8.20
2023-04-09T23:42:08.056Z,8.20
2023-04-09T23:47:10.046Z,8.40
2023-04-09T23:52:12.226Z,8.60
2023-04-09T23:57:13.732Z,8.30
